sensor_id;sensor_type;location;lat;lon;timestamp;temperature;humidity
11772;DHT22;12556;55.748;13.194;2022-08-19T00:01:21;20.80;99.90
11772;DHT22;12556;55.748;13.194;2022-08-19T00:03:49;20.80;99.90
11772;DHT22;12556;55.748;13.194;2022-08-19T00:06:16;20.70;99.90
11772;DHT22;12556;55.748;13.194;2022-08-19T00:08:43;20.70;99.90
11772;DHT22;12556;55.748;13.194;2022-08-19T00:11:11;20.70;99.90
11772;DHT22;12556;55.748;13.194;2022-08-19T00:13:39;20.70;99.90
11772;DHT22;12556;55.748;13.194;2022-08-19T00:16:06;20.80;99.90
11772;DHT22;12556;55.748;13.194;2022-08-19T00:18:34;20.70;99.90
11772;DHT22;12556;55.748;13.194;2022-08-19T00:21:01;20.70;99.90
11772;DHT22;12556;55.748;13.194;2022-08-19T00:23:34;20.80;99.90
11772;DHT22;12556;55.748;13.194;2022-08-19T00:26:02;20.70;99.90
11772;DHT22;12556;55.748;13.194;2022-08-19T00:28:29;20.70;99.90
11772;DHT22;12556;55.748;13.194;2022-08-19T00:30:58;20.70;99.90
11772;DHT22;12556;55.748;13.194;2022-08-19T00:33:25;20.70;99.90
11772;DHT22;12556;55.748;13.194;2022-08-19T00:35:52;20.70;99.90
11772;DHT22;12556;55.748;13.194;2022-08-19T00:38:18;20.60;99.90
11772;DHT22;12556;55.748;13.194;2022-08-19T00:40:48;20.60;99.90
11772;DHT22;12556;55.748;13.194;2022-08-19T00:43:18;20.60;99.90
11772;DHT22;12556;55.748;13.194;2022-08-19T00:45:47;20.60;99.90
11772;DHT22;12556;55.748;13.194;2022-08-19T00:48:17;20.60;99.90
11772;DHT22;12556;55.748;13.194;2022-08-19T00:50:44;20.60;99.90
11772;DHT22;12556;55.748;13.194;2022-08-19T00:53:14;20.60;99.90
11772;DHT22;12556;55.748;13.194;2022-08-19T00:55:45;20.60;99.90
11772;DHT22;12556;55.748;13.194;2022-08-19T00:58:19;20.60;99.90
11772;DHT22;12556;55.748;13.194;2022-08-19T01:00:46;20.60;99.90
11772;DHT22;12556;55.748;13.194;2022-08-19T01:03:17;20.60;99.90
11772;DHT22;12556;55.748;13.194;2022-08-19T01:05:45;20.60;99.90
11772;DHT22;12556;55.748;13.194;2022-08-19T01:08:15;20.60;99.90
11772;DHT22;12556;55.748;13.194;2022-08-19T01:10:46;20.60;99.90
11772;DHT22;12556;55.748;13.194;2022-08-19T01:13:14;20.60;99.90
11772;DHT22;12556;55.748;13.194;2022-08-19T01:15:45;20.70;99.90
11772;DHT22;12556;55.748;13.194;2022-08-19T01:18:15;20.70;99.90
11772;DHT22;12556;55.748;13.194;2022-08-19T01:20:45;20.60;99.90
11772;DHT22;12556;55.748;13.194;2022-08-19T01:23:15;20.70;99.90
11772;DHT22;12556;55.748;13.194;2022-08-19T01:25:44;20.70;99.90
11772;DHT22;12556;55.748;13.194;2022-08-19T01:28:16;20.70;99.90
11772;DHT22;12556;55.748;13.194;2022-08-19T01:30:43;20.60;99.90
11772;DHT22;12556;55.748;13.194;2022-08-19T01:33:10;20.70;99.90
11772;DHT22;12556;55.748;13.194;2022-08-19T01:35:37;20.70;99.90
11772;DHT22;12556;55.748;13.194;2022-08-19T01:38:07;20.70;99.90
11772;DHT22;12556;55.748;13.194;2022-08-19T01:40:39;20.70;99.90
11772;DHT22;12556;55.748;13.194;2022-08-19T01:43:07;20.70;99.90
11772;DHT22;12556;55.748;13.194;2022-08-19T01:45:34;20.70;99.90
11772;DHT22;12556;55.748;13.194;2022-08-19T01:48:02;20.70;99.90
11772;DHT22;12556;55.748;13.194;2022-08-19T01:50:30;20.60;99.90
11772;DHT22;12556;55.748;13.194;2022-08-19T01:52:58;20.60;99.90
11772;DHT22;12556;55.748;13.194;2022-08-19T01:55:25;20.50;99.90
11772;DHT22;12556;55.748;13.194;2022-08-19T01:57:56;20.50;99.90
11772;DHT22;12556;55.748;13.194;2022-08-19T02:00:26;20.40;99.90
11772;DHT22;12556;55.748;13.194;2022-08-19T02:02:53;20.40;99.90
11772;DHT22;12556;55.748;13.194;2022-08-19T02:05:20;20.30;99.90
11772;DHT22;12556;55.748;13.194;2022-08-19T02:07:48;20.30;99.90
11772;DHT22;12556;55.748;13.194;2022-08-19T02:10:17;20.30;99.90
11772;DHT22;12556;55.748;13.194;2022-08-19T02:12:45;20.30;99.90
11772;DHT22;12556;55.748;13.194;2022-08-19T02:15:13;20.30;99.90
11772;DHT22;12556;55.748;13.194;2022-08-19T02:17:41;20.20;99.90
11772;DHT22;12556;55.748;13.194;2022-08-19T02:20:09;20.50;99.90
11772;DHT22;12556;55.748;13.194;2022-08-19T02:22:39;20.10;99.90
11772;DHT22;12556;55.748;13.194;2022-08-19T02:25:07;20.00;99.90
11772;DHT22;12556;55.748;13.194;2022-08-19T02:27:34;20.00;99.90
11772;DHT22;12556;55.748;13.194;2022-08-19T02:30:04;19.90;99.90
11772;DHT22;12556;55.748;13.194;2022-08-19T02:32:33;19.90;99.90
11772;DHT22;12556;55.748;13.194;2022-08-19T02:35:00;19.90;99.90
11772;DHT22;12556;55.748;13.194;2022-08-19T02:37:27;19.80;99.90
11772;DHT22;12556;55.748;13.194;2022-08-19T02:40:11;19.90;99.90
11772;DHT22;12556;55.748;13.194;2022-08-19T02:42:38;19.80;99.90
11772;DHT22;12556;55.748;13.194;2022-08-19T02:45:07;19.80;99.90
11772;DHT22;12556;55.748;13.194;2022-08-19T02:47:36;19.80;99.90
11772;DHT22;12556;55.748;13.194;2022-08-19T02:50:04;19.70;99.90
11772;DHT22;12556;55.748;13.194;2022-08-19T02:52:32;19.70;99.90
11772;DHT22;12556;55.748;13.194;2022-08-19T02:55:00;19.70;99.90
11772;DHT22;12556;55.748;13.194;2022-08-19T02:57:27;19.70;99.90
11772;DHT22;12556;55.748;13.194;2022-08-19T02:59:54;19.70;99.90
11772;DHT22;12556;55.748;13.194;2022-08-19T03:02:21;19.60;99.90
11772;DHT22;12556;55.748;13.194;2022-08-19T03:04:49;19.50;99.90
11772;DHT22;12556;55.748;13.194;2022-08-19T03:07:17;19.50;99.90
11772;DHT22;12556;55.748;13.194;2022-08-19T03:09:45;19.50;99.90
11772;DHT22;12556;55.748;13.194;2022-08-19T03:12:12;19.50;99.90
11772;DHT22;12556;55.748;13.194;2022-08-19T03:14:39;19.50;99.90
11772;DHT22;12556;55.748;13.194;2022-08-19T03:17:06;19.50;99.90
11772;DHT22;12556;55.748;13.194;2022-08-19T03:19:33;19.50;99.90
11772;DHT22;12556;55.748;13.194;2022-08-19T03:22:02;19.50;99.90
11772;DHT22;12556;55.748;13.194;2022-08-19T03:24:30;19.60;99.90
11772;DHT22;12556;55.748;13.194;2022-08-19T03:26:58;19.60;99.90
11772;DHT22;12556;55.748;13.194;2022-08-19T03:29:25;19.60;99.90
11772;DHT22;12556;55.748;13.194;2022-08-19T03:31:53;19.60;99.90
11772;DHT22;12556;55.748;13.194;2022-08-19T03:34:23;19.70;99.90
11772;DHT22;12556;55.748;13.194;2022-08-19T03:36:52;19.70;99.90
11772;DHT22;12556;55.748;13.194;2022-08-19T03:39:22;19.70;99.90
11772;DHT22;12556;55.748;13.194;2022-08-19T03:41:50;19.70;99.90
11772;DHT22;12556;55.748;13.194;2022-08-19T03:44:19;19.70;99.90
11772;DHT22;12556;55.748;13.194;2022-08-19T03:46:48;19.70;99.90
11772;DHT22;12556;55.748;13.194;2022-08-19T03:49:17;19.70;99.90
11772;DHT22;12556;55.748;13.194;2022-08-19T03:51:46;19.70;99.90
11772;DHT22;12556;55.748;13.194;2022-08-19T03:54:15;19.70;99.90
11772;DHT22;12556;55.748;13.194;2022-08-19T03:56:46;19.70;99.90
11772;DHT22;12556;55.748;13.194;2022-08-19T03:59:17;19.60;99.90
11772;DHT22;12556;55.748;13.194;2022-08-19T04:01:45;19.70;99.90
11772;DHT22;12556;55.748;13.194;2022-08-19T04:04:12;19.70;99.90
11772;DHT22;12556;55.748;13.194;2022-08-19T04:06:40;19.60;99.90
11772;DHT22;12556;55.748;13.194;2022-08-19T04:09:08;19.60;99.90
11772;DHT22;12556;55.748;13.194;2022-08-19T04:11:37;19.60;99.90
11772;DHT22;12556;55.748;13.194;2022-08-19T04:14:09;19.60;99.90
11772;DHT22;12556;55.748;13.194;2022-08-19T04:16:36;19.60;99.90
11772;DHT22;12556;55.748;13.194;2022-08-19T04:19:04;19.60;99.90
11772;DHT22;12556;55.748;13.194;2022-08-19T04:21:31;19.60;99.90
11772;DHT22;12556;55.748;13.194;2022-08-19T04:23:58;19.60;99.90
11772;DHT22;12556;55.748;13.194;2022-08-19T04:26:29;19.60;99.90
11772;DHT22;12556;55.748;13.194;2022-08-19T04:28:57;19.60;99.90
11772;DHT22;12556;55.748;13.194;2022-08-19T04:31:28;19.60;99.90
11772;DHT22;12556;55.748;13.194;2022-08-19T04:33:58;19.60;99.90
11772;DHT22;12556;55.748;13.194;2022-08-19T04:36:27;19.70;99.90
11772;DHT22;12556;55.748;13.194;2022-08-19T04:38:55;19.70;99.90
11772;DHT22;12556;55.748;13.194;2022-08-19T04:41:22;19.70;99.90
11772;DHT22;12556;55.748;13.194;2022-08-19T04:44:07;19.70;99.90
11772;DHT22;12556;55.748;13.194;2022-08-19T04:46:35;19.70;99.90
11772;DHT22;12556;55.748;13.194;2022-08-19T04:49:04;19.60;99.90
11772;DHT22;12556;55.748;13.194;2022-08-19T04:51:32;19.60;99.90
11772;DHT22;12556;55.748;13.194;2022-08-19T04:54:01;19.60;99.90
11772;DHT22;12556;55.748;13.194;2022-08-19T04:56:28;19.70;99.90
11772;DHT22;12556;55.748;13.194;2022-08-19T04:58:57;19.70;99.90
11772;DHT22;12556;55.748;13.194;2022-08-19T05:01:29;19.70;99.90
11772;DHT22;12556;55.748;13.194;2022-08-19T05:03:59;19.70;99.90
11772;DHT22;12556;55.748;13.194;2022-08-19T05:06:27;19.70;99.90
11772;DHT22;12556;55.748;13.194;2022-08-19T05:08:54;19.70;99.90
11772;DHT22;12556;55.748;13.194;2022-08-19T05:11:24;19.70;99.90
11772;DHT22;12556;55.748;13.194;2022-08-19T05:13:52;19.70;99.90
11772;DHT22;12556;55.748;13.194;2022-08-19T05:16:20;19.70;99.90
11772;DHT22;12556;55.748;13.194;2022-08-19T05:18:48;19.70;99.90
11772;DHT22;12556;55.748;13.194;2022-08-19T05:21:35;19.70;99.90
11772;DHT22;12556;55.748;13.194;2022-08-19T05:24:21;19.70;99.90
11772;DHT22;12556;55.748;13.194;2022-08-19T05:26:49;19.80;99.90
11772;DHT22;12556;55.748;13.194;2022-08-19T05:29:18;19.80;99.90
11772;DHT22;12556;55.748;13.194;2022-08-19T05:31:46;19.90;99.90
11772;DHT22;12556;55.748;13.194;2022-08-19T05:34:15;19.90;99.90
11772;DHT22;12556;55.748;13.194;2022-08-19T05:36:44;19.90;99.90
11772;DHT22;12556;55.748;13.194;2022-08-19T05:39:14;19.90;99.90
11772;DHT22;12556;55.748;13.194;2022-08-19T05:41:42;20.00;99.90
11772;DHT22;12556;55.748;13.194;2022-08-19T05:44:09;20.00;99.90
11772;DHT22;12556;55.748;13.194;2022-08-19T05:46:37;20.10;99.90
11772;DHT22;12556;55.748;13.194;2022-08-19T05:49:05;20.10;99.90
11772;DHT22;12556;55.748;13.194;2022-08-19T05:51:33;20.20;99.90
11772;DHT22;12556;55.748;13.194;2022-08-19T05:54:03;20.20;99.90
11772;DHT22;12556;55.748;13.194;2022-08-19T05:56:31;20.30;99.90
11772;DHT22;12556;55.748;13.194;2022-08-19T05:59:00;20.30;99.90
11772;DHT22;12556;55.748;13.194;2022-08-19T06:01:27;20.40;99.90
11772;DHT22;12556;55.748;13.194;2022-08-19T06:03:54;20.40;99.90
11772;DHT22;12556;55.748;13.194;2022-08-19T06:06:21;20.40;99.90
11772;DHT22;12556;55.748;13.194;2022-08-19T06:08:48;20.40;99.90
11772;DHT22;12556;55.748;13.194;2022-08-19T06:11:20;20.50;99.90
11772;DHT22;12556;55.748;13.194;2022-08-19T06:13:49;20.50;99.90
11772;DHT22;12556;55.748;13.194;2022-08-19T06:16:18;20.60;99.90
11772;DHT22;12556;55.748;13.194;2022-08-19T06:18:49;20.60;99.90
11772;DHT22;12556;55.748;13.194;2022-08-19T06:21:17;20.60;99.90
11772;DHT22;12556;55.748;13.194;2022-08-19T06:23:45;20.60;99.90
11772;DHT22;12556;55.748;13.194;2022-08-19T06:26:13;20.70;99.90
11772;DHT22;12556;55.748;13.194;2022-08-19T06:28:41;20.70;99.90
11772;DHT22;12556;55.748;13.194;2022-08-19T06:31:10;20.70;99.90
11772;DHT22;12556;55.748;13.194;2022-08-19T06:33:39;20.70;99.90
11772;DHT22;12556;55.748;13.194;2022-08-19T06:36:07;20.70;99.90
11772;DHT22;12556;55.748;13.194;2022-08-19T06:38:34;20.80;99.90
11772;DHT22;12556;55.748;13.194;2022-08-19T06:41:01;20.90;99.90
11772;DHT22;12556;55.748;13.194;2022-08-19T06:43:28;20.90;99.90
11772;DHT22;12556;55.748;13.194;2022-08-19T06:45:56;21.00;99.90
11772;DHT22;12556;55.748;13.194;2022-08-19T06:48:24;21.00;99.90
11772;DHT22;12556;55.748;13.194;2022-08-19T06:50:51;21.00;99.90
11772;DHT22;12556;55.748;13.194;2022-08-19T06:53:18;21.10;99.90
11772;DHT22;12556;55.748;13.194;2022-08-19T06:55:45;21.10;99.90
11772;DHT22;12556;55.748;13.194;2022-08-19T06:58:12;21.20;99.90
11772;DHT22;12556;55.748;13.194;2022-08-19T07:00:39;21.30;99.90
11772;DHT22;12556;55.748;13.194;2022-08-19T07:03:07;21.30;99.90
11772;DHT22;12556;55.748;13.194;2022-08-19T07:05:40;21.40;99.90
11772;DHT22;12556;55.748;13.194;2022-08-19T07:08:07;21.50;99.90
11772;DHT22;12556;55.748;13.194;2022-08-19T07:10:35;21.60;99.90
11772;DHT22;12556;55.748;13.194;2022-08-19T07:13:03;21.60;99.90
11772;DHT22;12556;55.748;13.194;2022-08-19T07:15:31;21.70;99.90
11772;DHT22;12556;55.748;13.194;2022-08-19T07:17:58;21.70;99.90
11772;DHT22;12556;55.748;13.194;2022-08-19T07:20:26;21.80;99.90
11772;DHT22;12556;55.748;13.194;2022-08-19T07:22:53;21.80;99.90
11772;DHT22;12556;55.748;13.194;2022-08-19T07:25:20;21.90;99.90
11772;DHT22;12556;55.748;13.194;2022-08-19T07:27:48;21.90;99.90
11772;DHT22;12556;55.748;13.194;2022-08-19T07:30:15;21.90;99.90
11772;DHT22;12556;55.748;13.194;2022-08-19T07:32:43;22.00;99.90
11772;DHT22;12556;55.748;13.194;2022-08-19T07:35:10;22.00;99.90
11772;DHT22;12556;55.748;13.194;2022-08-19T07:37:38;22.00;99.90
11772;DHT22;12556;55.748;13.194;2022-08-19T07:40:10;22.00;99.90
11772;DHT22;12556;55.748;13.194;2022-08-19T07:42:37;22.00;99.90
11772;DHT22;12556;55.748;13.194;2022-08-19T07:45:05;22.00;99.90
11772;DHT22;12556;55.748;13.194;2022-08-19T07:47:33;22.00;99.90
11772;DHT22;12556;55.748;13.194;2022-08-19T07:50:00;22.10;99.90
11772;DHT22;12556;55.748;13.194;2022-08-19T07:52:30;22.10;99.90
11772;DHT22;12556;55.748;13.194;2022-08-19T07:54:58;22.10;99.90
11772;DHT22;12556;55.748;13.194;2022-08-19T07:57:29;22.20;99.90
11772;DHT22;12556;55.748;13.194;2022-08-19T07:59:56;22.20;99.90
11772;DHT22;12556;55.748;13.194;2022-08-19T08:02:22;22.30;99.90
11772;DHT22;12556;55.748;13.194;2022-08-19T08:04:50;22.30;99.90
11772;DHT22;12556;55.748;13.194;2022-08-19T08:07:34;22.40;99.90
11772;DHT22;12556;55.748;13.194;2022-08-19T08:10:20;22.50;99.90
11772;DHT22;12556;55.748;13.194;2022-08-19T08:12:47;22.50;99.90
11772;DHT22;12556;55.748;13.194;2022-08-19T08:15:15;22.60;99.90
11772;DHT22;12556;55.748;13.194;2022-08-19T08:17:44;22.60;99.90
11772;DHT22;12556;55.748;13.194;2022-08-19T08:20:13;22.60;99.90
11772;DHT22;12556;55.748;13.194;2022-08-19T08:22:43;22.70;99.90
11772;DHT22;12556;55.748;13.194;2022-08-19T08:25:30;22.70;99.90
11772;DHT22;12556;55.748;13.194;2022-08-19T08:27:57;22.80;99.90
11772;DHT22;12556;55.748;13.194;2022-08-19T08:30:27;22.80;99.90
11772;DHT22;12556;55.748;13.194;2022-08-19T08:32:55;22.90;99.90
11772;DHT22;12556;55.748;13.194;2022-08-19T08:35:23;22.90;99.90
11772;DHT22;12556;55.748;13.194;2022-08-19T08:37:52;23.00;99.90
11772;DHT22;12556;55.748;13.194;2022-08-19T08:40:30;23.00;99.90
11772;DHT22;12556;55.748;13.194;2022-08-19T08:43:03;23.10;99.90
11772;DHT22;12556;55.748;13.194;2022-08-19T08:45:35;23.20;99.90
11772;DHT22;12556;55.748;13.194;2022-08-19T08:48:09;23.30;99.90
11772;DHT22;12556;55.748;13.194;2022-08-19T08:50:41;23.40;99.90
11772;DHT22;12556;55.748;13.194;2022-08-19T08:53:10;23.50;99.90
11772;DHT22;12556;55.748;13.194;2022-08-19T08:55:41;23.60;99.90
11772;DHT22;12556;55.748;13.194;2022-08-19T08:58:13;23.60;99.90
11772;DHT22;12556;55.748;13.194;2022-08-19T09:00:45;23.70;99.90
11772;DHT22;12556;55.748;13.194;2022-08-19T09:03:17;23.70;99.90
11772;DHT22;12556;55.748;13.194;2022-08-19T09:05:54;23.70;99.90
11772;DHT22;12556;55.748;13.194;2022-08-19T09:08:33;23.70;99.90
11772;DHT22;12556;55.748;13.194;2022-08-19T09:11:07;23.80;99.90
11772;DHT22;12556;55.748;13.194;2022-08-19T09:13:41;23.80;99.90
11772;DHT22;12556;55.748;13.194;2022-08-19T09:16:14;23.90;99.90
11772;DHT22;12556;55.748;13.194;2022-08-19T09:18:44;24.00;99.90
11772;DHT22;12556;55.748;13.194;2022-08-19T09:21:11;24.10;99.90
11772;DHT22;12556;55.748;13.194;2022-08-19T09:23:38;24.30;99.90
11772;DHT22;12556;55.748;13.194;2022-08-19T09:26:12;24.50;99.90
11772;DHT22;12556;55.748;13.194;2022-08-19T09:28:39;24.70;99.90
11772;DHT22;12556;55.748;13.194;2022-08-19T09:31:09;24.90;99.90
11772;DHT22;12556;55.748;13.194;2022-08-19T09:33:35;25.00;99.90
11772;DHT22;12556;55.748;13.194;2022-08-19T09:36:05;25.20;99.90
11772;DHT22;12556;55.748;13.194;2022-08-19T09:38:33;25.40;99.90
11772;DHT22;12556;55.748;13.194;2022-08-19T09:41:04;25.60;99.90
11772;DHT22;12556;55.748;13.194;2022-08-19T09:43:33;25.90;99.90
11772;DHT22;12556;55.748;13.194;2022-08-19T09:46:02;26.20;99.90
11772;DHT22;12556;55.748;13.194;2022-08-19T09:48:31;26.50;99.90
11772;DHT22;12556;55.748;13.194;2022-08-19T09:51:03;26.70;99.90
11772;DHT22;12556;55.748;13.194;2022-08-19T09:53:30;27.10;99.90
11772;DHT22;12556;55.748;13.194;2022-08-19T09:55:57;27.30;99.90
11772;DHT22;12556;55.748;13.194;2022-08-19T09:58:24;27.60;99.90
11772;DHT22;12556;55.748;13.194;2022-08-19T10:00:54;27.70;99.90
11772;DHT22;12556;55.748;13.194;2022-08-19T10:03:22;27.90;99.90
11772;DHT22;12556;55.748;13.194;2022-08-19T10:05:49;28.10;99.90
11772;DHT22;12556;55.748;13.194;2022-08-19T10:08:18;28.20;99.90
11772;DHT22;12556;55.748;13.194;2022-08-19T10:10:46;28.30;99.90
11772;DHT22;12556;55.748;13.194;2022-08-19T10:13:14;28.40;99.90
11772;DHT22;12556;55.748;13.194;2022-08-19T10:15:42;28.40;99.90
11772;DHT22;12556;55.748;13.194;2022-08-19T10:18:10;28.10;99.90
11772;DHT22;12556;55.748;13.194;2022-08-19T10:20:37;28.00;99.90
11772;DHT22;12556;55.748;13.194;2022-08-19T10:23:04;28.00;99.90
11772;DHT22;12556;55.748;13.194;2022-08-19T10:25:32;27.70;99.90
11772;DHT22;12556;55.748;13.194;2022-08-19T10:28:00;27.50;99.90
11772;DHT22;12556;55.748;13.194;2022-08-19T10:30:27;27.50;99.90
11772;DHT22;12556;55.748;13.194;2022-08-19T10:32:54;27.60;99.90
11772;DHT22;12556;55.748;13.194;2022-08-19T10:35:22;27.70;99.90
11772;DHT22;12556;55.748;13.194;2022-08-19T10:37:52;27.70;99.90
11772;DHT22;12556;55.748;13.194;2022-08-19T10:40:19;27.70;99.90
11772;DHT22;12556;55.748;13.194;2022-08-19T10:42:46;27.60;99.90
11772;DHT22;12556;55.748;13.194;2022-08-19T10:45:12;27.50;99.90
11772;DHT22;12556;55.748;13.194;2022-08-19T10:47:39;27.40;99.90
11772;DHT22;12556;55.748;13.194;2022-08-19T10:50:07;27.30;99.90
11772;DHT22;12556;55.748;13.194;2022-08-19T10:53:03;27.30;99.90
11772;DHT22;12556;55.748;13.194;2022-08-19T10:55:30;27.10;99.90
11772;DHT22;12556;55.748;13.194;2022-08-19T10:58:23;26.80;99.90
11772;DHT22;12556;55.748;13.194;2022-08-19T11:00:52;26.60;99.90
11772;DHT22;12556;55.748;13.194;2022-08-19T11:03:20;26.30;99.90
11772;DHT22;12556;55.748;13.194;2022-08-19T11:05:47;26.10;99.90
11772;DHT22;12556;55.748;13.194;2022-08-19T11:08:16;25.80;99.90
11772;DHT22;12556;55.748;13.194;2022-08-19T11:10:43;25.60;99.90
11772;DHT22;12556;55.748;13.194;2022-08-19T11:13:10;25.30;99.90
11772;DHT22;12556;55.748;13.194;2022-08-19T11:15:37;25.10;99.90
11772;DHT22;12556;55.748;13.194;2022-08-19T11:18:04;24.90;99.90
11772;DHT22;12556;55.748;13.194;2022-08-19T11:20:33;24.70;99.90
11772;DHT22;12556;55.748;13.194;2022-08-19T11:23:00;24.60;99.90
11772;DHT22;12556;55.748;13.194;2022-08-19T11:25:28;24.50;99.90
11772;DHT22;12556;55.748;13.194;2022-08-19T11:27:55;24.60;99.90
11772;DHT22;12556;55.748;13.194;2022-08-19T11:30:22;24.60;99.90
11772;DHT22;12556;55.748;13.194;2022-08-19T11:32:49;24.60;99.90
11772;DHT22;12556;55.748;13.194;2022-08-19T11:35:16;24.60;99.90
11772;DHT22;12556;55.748;13.194;2022-08-19T11:37:45;24.60;99.90
11772;DHT22;12556;55.748;13.194;2022-08-19T11:40:12;24.60;99.90
11772;DHT22;12556;55.748;13.194;2022-08-19T11:42:40;24.50;99.90
11772;DHT22;12556;55.748;13.194;2022-08-19T11:45:22;24.40;99.90
11772;DHT22;12556;55.748;13.194;2022-08-19T11:47:49;24.40;99.90
11772;DHT22;12556;55.748;13.194;2022-08-19T11:50:16;24.50;99.90
11772;DHT22;12556;55.748;13.194;2022-08-19T11:52:43;24.50;99.90
11772;DHT22;12556;55.748;13.194;2022-08-19T11:55:12;24.50;99.90
11772;DHT22;12556;55.748;13.194;2022-08-19T11:57:40;24.60;99.90
11772;DHT22;12556;55.748;13.194;2022-08-19T12:00:10;24.60;99.90
11772;DHT22;12556;55.748;13.194;2022-08-19T12:02:38;24.60;99.90
11772;DHT22;12556;55.748;13.194;2022-08-19T12:05:05;24.60;99.90
11772;DHT22;12556;55.748;13.194;2022-08-19T12:07:33;24.60;99.90
11772;DHT22;12556;55.748;13.194;2022-08-19T12:10:00;24.70;99.90
11772;DHT22;12556;55.748;13.194;2022-08-19T12:12:27;24.70;99.90
11772;DHT22;12556;55.748;13.194;2022-08-19T12:14:55;24.70;99.90
11772;DHT22;12556;55.748;13.194;2022-08-19T12:17:24;24.60;99.90
11772;DHT22;12556;55.748;13.194;2022-08-19T12:19:51;24.60;99.90
11772;DHT22;12556;55.748;13.194;2022-08-19T12:22:18;24.60;99.90
11772;DHT22;12556;55.748;13.194;2022-08-19T12:24:46;24.50;99.90
11772;DHT22;12556;55.748;13.194;2022-08-19T12:27:15;24.40;99.90
11772;DHT22;12556;55.748;13.194;2022-08-19T12:29:42;24.40;99.90
11772;DHT22;12556;55.748;13.194;2022-08-19T12:32:10;24.40;99.90
11772;DHT22;12556;55.748;13.194;2022-08-19T12:34:37;24.40;99.90
11772;DHT22;12556;55.748;13.194;2022-08-19T12:37:05;24.40;99.90
11772;DHT22;12556;55.748;13.194;2022-08-19T12:39:37;24.50;99.90
11772;DHT22;12556;55.748;13.194;2022-08-19T12:42:05;24.50;99.90
11772;DHT22;12556;55.748;13.194;2022-08-19T12:44:32;24.50;99.90
11772;DHT22;12556;55.748;13.194;2022-08-19T12:47:00;24.50;99.90
11772;DHT22;12556;55.748;13.194;2022-08-19T12:49:30;24.50;99.90
11772;DHT22;12556;55.748;13.194;2022-08-19T12:51:57;24.40;99.90
11772;DHT22;12556;55.748;13.194;2022-08-19T12:54:24;24.30;99.90
11772;DHT22;12556;55.748;13.194;2022-08-19T12:56:51;24.30;99.90
11772;DHT22;12556;55.748;13.194;2022-08-19T12:59:18;24.30;99.90
11772;DHT22;12556;55.748;13.194;2022-08-19T13:01:45;24.30;99.90
11772;DHT22;12556;55.748;13.194;2022-08-19T13:04:12;24.30;99.90
11772;DHT22;12556;55.748;13.194;2022-08-19T13:06:40;24.30;99.90
11772;DHT22;12556;55.748;13.194;2022-08-19T13:09:08;24.30;99.90
11772;DHT22;12556;55.748;13.194;2022-08-19T13:11:36;24.40;99.90
11772;DHT22;12556;55.748;13.194;2022-08-19T13:14:03;24.30;99.90
11772;DHT22;12556;55.748;13.194;2022-08-19T13:16:30;24.40;99.90
11772;DHT22;12556;55.748;13.194;2022-08-19T13:18:58;24.30;99.90
11772;DHT22;12556;55.748;13.194;2022-08-19T13:21:26;24.40;99.90
11772;DHT22;12556;55.748;13.194;2022-08-19T13:23:57;24.50;99.90
11772;DHT22;12556;55.748;13.194;2022-08-19T13:26:24;24.50;99.90
11772;DHT22;12556;55.748;13.194;2022-08-19T13:28:50;24.50;99.90
11772;DHT22;12556;55.748;13.194;2022-08-19T13:31:38;24.50;99.90
11772;DHT22;12556;55.748;13.194;2022-08-19T13:34:28;24.40;99.90
11772;DHT22;12556;55.748;13.194;2022-08-19T13:36:55;24.40;99.90
11772;DHT22;12556;55.748;13.194;2022-08-19T13:39:23;24.40;99.90
11772;DHT22;12556;55.748;13.194;2022-08-19T13:41:50;24.40;99.90
11772;DHT22;12556;55.748;13.194;2022-08-19T13:44:17;24.30;99.90
11772;DHT22;12556;55.748;13.194;2022-08-19T13:46:45;24.30;99.90
11772;DHT22;12556;55.748;13.194;2022-08-19T13:49:13;24.30;99.90
11772;DHT22;12556;55.748;13.194;2022-08-19T13:51:41;24.30;99.90
11772;DHT22;12556;55.748;13.194;2022-08-19T13:54:09;24.20;99.90
11772;DHT22;12556;55.748;13.194;2022-08-19T13:56:40;24.30;99.90
11772;DHT22;12556;55.748;13.194;2022-08-19T13:59:07;24.30;99.90
11772;DHT22;12556;55.748;13.194;2022-08-19T14:01:34;24.30;99.90
11772;DHT22;12556;55.748;13.194;2022-08-19T14:04:01;24.30;99.90
11772;DHT22;12556;55.748;13.194;2022-08-19T14:06:28;24.30;99.90
11772;DHT22;12556;55.748;13.194;2022-08-19T14:08:55;24.30;99.90
11772;DHT22;12556;55.748;13.194;2022-08-19T14:11:22;24.30;99.90
11772;DHT22;12556;55.748;13.194;2022-08-19T14:13:51;24.30;99.90
11772;DHT22;12556;55.748;13.194;2022-08-19T14:16:18;24.40;99.90
11772;DHT22;12556;55.748;13.194;2022-08-19T14:18:45;24.40;99.90
11772;DHT22;12556;55.748;13.194;2022-08-19T14:21:15;24.40;99.90
11772;DHT22;12556;55.748;13.194;2022-08-19T14:23:43;24.40;99.90
11772;DHT22;12556;55.748;13.194;2022-08-19T14:26:12;24.30;99.90
11772;DHT22;12556;55.748;13.194;2022-08-19T14:28:40;24.30;99.90
11772;DHT22;12556;55.748;13.194;2022-08-19T14:31:09;24.30;99.90
11772;DHT22;12556;55.748;13.194;2022-08-19T14:33:36;24.30;99.90
11772;DHT22;12556;55.748;13.194;2022-08-19T14:36:03;24.30;99.90
11772;DHT22;12556;55.748;13.194;2022-08-19T14:38:30;24.20;99.90
11772;DHT22;12556;55.748;13.194;2022-08-19T14:41:07;24.10;99.90
11772;DHT22;12556;55.748;13.194;2022-08-19T14:43:34;24.10;99.90
11772;DHT22;12556;55.748;13.194;2022-08-19T14:46:01;24.00;99.90
11772;DHT22;12556;55.748;13.194;2022-08-19T14:48:29;24.00;99.90
11772;DHT22;12556;55.748;13.194;2022-08-19T14:50:56;24.00;99.90
11772;DHT22;12556;55.748;13.194;2022-08-19T14:53:23;24.00;99.90
11772;DHT22;12556;55.748;13.194;2022-08-19T14:55:51;24.00;99.90
11772;DHT22;12556;55.748;13.194;2022-08-19T14:58:18;23.90;99.90
11772;DHT22;12556;55.748;13.194;2022-08-19T15:00:45;23.90;99.90
11772;DHT22;12556;55.748;13.194;2022-08-19T15:03:12;23.80;99.90
11772;DHT22;12556;55.748;13.194;2022-08-19T15:05:40;23.80;99.90
11772;DHT22;12556;55.748;13.194;2022-08-19T15:08:07;23.70;99.90
11772;DHT22;12556;55.748;13.194;2022-08-19T15:10:34;23.70;99.90
11772;DHT22;12556;55.748;13.194;2022-08-19T15:13:00;23.70;99.90
11772;DHT22;12556;55.748;13.194;2022-08-19T15:15:27;23.70;99.90
11772;DHT22;12556;55.748;13.194;2022-08-19T15:17:54;23.80;99.90
11772;DHT22;12556;55.748;13.194;2022-08-19T15:20:27;23.80;99.90
11772;DHT22;12556;55.748;13.194;2022-08-19T15:22:56;23.80;99.90
11772;DHT22;12556;55.748;13.194;2022-08-19T15:25:24;23.80;99.90